sensor_id;sensor_type;location;lat;lon;timestamp;pressure;altitude;pressure_sealevel;temperature;humidity
49841;BME280;35738;49.890;5.930;2022-12-29T00:01:58;94799.88;;;6.95;100.00
49841;BME280;35738;49.890;5.930;2022-12-29T00:04:25;94782.56;;;6.91;100.00
49841;BME280;35738;49.890;5.930;2022-12-29T00:06:52;94799.41;;;6.93;100.00
49841;BME280;35738;49.890;5.930;2022-12-29T00:09:19;94794.41;;;6.95;100.00
49841;BME280;35738;49.890;5.930;2022-12-29T00:11:45;94793.81;;;6.89;100.00
49841;BME280;35738;49.890;5.930;2022-12-29T00:14:12;94789.94;;;6.90;100.00
49841;BME280;35738;49.890;5.930;2022-12-29T00:16:58;94780.94;;;6.90;100.00
49841;BME280;35738;49.890;5.930;2022-12-29T00:19:24;94794.09;;;6.96;100.00
49841;BME280;35738;49.890;5.930;2022-12-29T00:22:11;94776.69;;;7.01;100.00
49841;BME280;35738;49.890;5.930;2022-12-29T00:24:57;94789.09;;;6.98;100.00
49841;BME280;35738;49.890;5.930;2022-12-29T00:27:43;94799.22;;;6.98;100.00
49841;BME280;35738;49.890;5.930;2022-12-29T00:30:33;94795.03;;;7.00;100.00
49841;BME280;35738;49.890;5.930;2022-12-29T00:33:21;94781.69;;;6.99;100.00
49841;BME280;35738;49.890;5.930;2022-12-29T00:36:08;94778.16;;;6.98;100.00
49841;BME280;35738;49.890;5.930;2022-12-29T00:38:37;94768.81;;;6.99;100.00
49841;BME280;35738;49.890;5.930;2022-12-29T00:41:24;94776.22;;;6.99;100.00
49841;BME280;35738;49.890;5.930;2022-12-29T00:44:10;94760.94;;;6.98;100.00
49841;BME280;35738;49.890;5.930;2022-12-29T00:46:39;94752.75;;;6.98;100.00
49841;BME280;35738;49.890;5.930;2022-12-29T00:49:08;94755.47;;;6.98;100.00
49841;BME280;35738;49.890;5.930;2022-12-29T00:51:55;94769.75;;;7.04;100.00
49841;BME280;35738;49.890;5.930;2022-12-29T00:54:22;94774.75;;;7.01;100.00
49841;BME280;35738;49.890;5.930;2022-12-29T00:56:50;94767.56;;;6.97;100.00
49841;BME280;35738;49.890;5.930;2022-12-29T00:59:18;94764.28;;;7.04;100.00
49841;BME280;35738;49.890;5.930;2022-12-29T01:01:46;94754.94;;;7.05;100.00
49841;BME280;35738;49.890;5.930;2022-12-29T01:04:13;94757.34;;;7.06;100.00
49841;BME280;35738;49.890;5.930;2022-12-29T01:06:40;94771.34;;;7.05;100.00
49841;BME280;35738;49.890;5.930;2022-12-29T01:09:08;94760.28;;;7.01;100.00
49841;BME280;35738;49.890;5.930;2022-12-29T01:11:55;94765.88;;;7.05;100.00
49841;BME280;35738;49.890;5.930;2022-12-29T01:14:22;94751.06;;;7.06;100.00
49841;BME280;35738;49.890;5.930;2022-12-29T01:16:49;94753.00;;;7.05;100.00
49841;BME280;35738;49.890;5.930;2022-12-29T01:19:16;94738.22;;;7.06;100.00
49841;BME280;35738;49.890;5.930;2022-12-29T01:21:44;94737.75;;;7.04;100.00
49841;BME280;35738;49.890;5.930;2022-12-29T01:24:10;94741.94;;;7.01;100.00
49841;BME280;35738;49.890;5.930;2022-12-29T01:26:37;94745.63;;;7.06;100.00
49841;BME280;35738;49.890;5.930;2022-12-29T01:29:04;94743.22;;;7.04;100.00
49841;BME280;35738;49.890;5.930;2022-12-29T01:31:31;94710.53;;;7.08;100.00
49841;BME280;35738;49.890;5.930;2022-12-29T01:33:57;94716.41;;;6.97;100.00
49841;BME280;35738;49.890;5.930;2022-12-29T01:36:24;94731.13;;;7.05;100.00
49841;BME280;35738;49.890;5.930;2022-12-29T01:38:51;94718.06;;;7.11;100.00
49841;BME280;35738;49.890;5.930;2022-12-29T01:41:18;94721.59;;;7.11;100.00
49841;BME280;35738;49.890;5.930;2022-12-29T01:43:46;94693.13;;;7.12;100.00
49841;BME280;35738;49.890;5.930;2022-12-29T01:51:47;94713.41;;;7.11;100.00
49841;BME280;35738;49.890;5.930;2022-12-29T01:54:25;94712.25;;;7.12;100.00
49841;BME280;35738;49.890;5.930;2022-12-29T01:56:57;94713.13;;;7.04;100.00
49841;BME280;35738;49.890;5.930;2022-12-29T01:59:28;94694.94;;;7.08;100.00
49841;BME280;35738;49.890;5.930;2022-12-29T02:01:56;94706.75;;;7.00;100.00
49841;BME280;35738;49.890;5.930;2022-12-29T02:04:24;94708.13;;;7.06;100.00
49841;BME280;35738;49.890;5.930;2022-12-29T02:06:59;94716.75;;;6.96;100.00
49841;BME280;35738;49.890;5.930;2022-12-29T02:09:28;94691.69;;;6.94;100.00
49841;BME280;35738;49.890;5.930;2022-12-29T02:11:55;94704.13;;;7.04;100.00
49841;BME280;35738;49.890;5.930;2022-12-29T02:14:22;94684.53;;;7.01;100.00
49841;BME280;35738;49.890;5.930;2022-12-29T02:25:30;94707.22;;;7.02;100.00
49841;BME280;35738;49.890;5.930;2022-12-29T02:30:57;94709.16;;;7.01;100.00
49841;BME280;35738;49.890;5.930;2022-12-29T02:39:18;94700.69;;;6.94;100.00
49841;BME280;35738;49.890;5.930;2022-12-29T02:44:50;94699.69;;;6.99;100.00
49841;BME280;35738;49.890;5.930;2022-12-29T02:47:23;94687.81;;;6.95;100.00
49841;BME280;35738;49.890;5.930;2022-12-29T02:50:04;94696.22;;;6.90;100.00
49841;BME280;35738;49.890;5.930;2022-12-29T02:53:09;94699.22;;;6.97;100.00
49841;BME280;35738;49.890;5.930;2022-12-29T02:55:37;94695.09;;;6.91;100.00
49841;BME280;35738;49.890;5.930;2022-12-29T02:58:19;94680.03;;;6.85;100.00
49841;BME280;35738;49.890;5.930;2022-12-29T03:07:00;94679.91;;;6.81;100.00
49841;BME280;35738;49.890;5.930;2022-12-29T03:12:14;94677.63;;;6.83;100.00
49841;BME280;35738;49.890;5.930;2022-12-29T03:17:38;94663.16;;;6.83;100.00
49841;BME280;35738;49.890;5.930;2022-12-29T03:20:08;94673.22;;;6.91;100.00
49841;BME280;35738;49.890;5.930;2022-12-29T03:22:41;94653.84;;;6.84;100.00
49841;BME280;35738;49.890;5.930;2022-12-29T03:25:20;94660.22;;;6.88;100.00
49841;BME280;35738;49.890;5.930;2022-12-29T03:28:02;94665.63;;;6.96;100.00
49841;BME280;35738;49.890;5.930;2022-12-29T03:30:32;94647.50;;;6.92;100.00
49841;BME280;35738;49.890;5.930;2022-12-29T03:33:03;94653.22;;;6.99;100.00
49841;BME280;35738;49.890;5.930;2022-12-29T03:35:34;94656.16;;;6.94;100.00
49841;BME280;35738;49.890;5.930;2022-12-29T03:40:30;94667.69;;;6.99;100.00
49841;BME280;35738;49.890;5.930;2022-12-29T03:42:58;94648.31;;;7.05;100.00
49841;BME280;35738;49.890;5.930;2022-12-29T03:45:25;94642.06;;;7.04;100.00
49841;BME280;35738;49.890;5.930;2022-12-29T03:47:53;94650.94;;;7.01;100.00
49841;BME280;35738;49.890;5.930;2022-12-29T03:50:19;94638.75;;;6.98;100.00
49841;BME280;35738;49.890;5.930;2022-12-29T03:52:46;94634.78;;;7.08;100.00
49841;BME280;35738;49.890;5.930;2022-12-29T03:55:13;94655.59;;;7.00;100.00
49841;BME280;35738;49.890;5.930;2022-12-29T03:57:39;94636.94;;;7.03;100.00
49841;BME280;35738;49.890;5.930;2022-12-29T04:00:06;94651.75;;;7.01;100.00
49841;BME280;35738;49.890;5.930;2022-12-29T04:02:33;94654.38;;;7.10;100.00
49841;BME280;35738;49.890;5.930;2022-12-29T04:05:00;94660.78;;;7.14;100.00
49841;BME280;35738;49.890;5.930;2022-12-29T04:07:27;94646.88;;;7.19;100.00
49841;BME280;35738;49.890;5.930;2022-12-29T04:09:53;94636.63;;;7.16;100.00
49841;BME280;35738;49.890;5.930;2022-12-29T04:12:20;94644.97;;;7.20;100.00
49841;BME280;35738;49.890;5.930;2022-12-29T04:14:46;94649.16;;;7.17;100.00
49841;BME280;35738;49.890;5.930;2022-12-29T04:17:13;94643.16;;;7.24;100.00
49841;BME280;35738;49.890;5.930;2022-12-29T04:19:40;94635.94;;;7.19;100.00
49841;BME280;35738;49.890;5.930;2022-12-29T04:22:06;94647.00;;;7.23;100.00
49841;BME280;35738;49.890;5.930;2022-12-29T04:24:33;94631.97;;;7.17;100.00
49841;BME280;35738;49.890;5.930;2022-12-29T04:27:00;94629.34;;;7.20;100.00
49841;BME280;35738;49.890;5.930;2022-12-29T04:29:26;94624.34;;;7.22;100.00
49841;BME280;35738;49.890;5.930;2022-12-29T04:31:53;94625.94;;;7.23;100.00
49841;BME280;35738;49.890;5.930;2022-12-29T04:34:19;94646.47;;;7.29;100.00
49841;BME280;35738;49.890;5.930;2022-12-29T04:36:47;94621.38;;;7.27;100.00
49841;BME280;35738;49.890;5.930;2022-12-29T04:39:14;94611.13;;;7.24;100.00
49841;BME280;35738;49.890;5.930;2022-12-29T04:41:40;94609.97;;;7.13;100.00
49841;BME280;35738;49.890;5.930;2022-12-29T04:44:07;94609.97;;;7.13;100.00
49841;BME280;35738;49.890;5.930;2022-12-29T04:46:33;94620.22;;;7.16;100.00
49841;BME280;35738;49.890;5.930;2022-12-29T04:49:00;94616.56;;;7.12;100.00
49841;BME280;35738;49.890;5.930;2022-12-29T04:51:30;94630.69;;;7.14;100.00
49841;BME280;35738;49.890;5.930;2022-12-29T04:53:57;94624.09;;;7.15;100.00
49841;BME280;35738;49.890;5.930;2022-12-29T04:56:24;94625.69;;;7.16;100.00
49841;BME280;35738;49.890;5.930;2022-12-29T04:58:50;94637.31;;;7.13;100.00
49841;BME280;35738;49.890;5.930;2022-12-29T05:01:17;94623.19;;;7.11;100.00
49841;BME280;35738;49.890;5.930;2022-12-29T05:03:43;94622.50;;;7.14;100.00
49841;BME280;35738;49.890;5.930;2022-12-29T05:06:10;94630.38;;;7.16;100.00
49841;BME280;35738;49.890;5.930;2022-12-29T05:08:37;94627.16;;;7.14;100.00
49841;BME280;35738;49.890;5.930;2022-12-29T05:11:03;94617.03;;;7.14;100.00
49841;BME280;35738;49.890;5.930;2022-12-29T05:13:30;94588.22;;;7.17;100.00
49841;BME280;35738;49.890;5.930;2022-12-29T05:15:57;94619.00;;;7.26;100.00
49841;BME280;35738;49.890;5.930;2022-12-29T05:18:23;94616.72;;;7.28;100.00
49841;BME280;35738;49.890;5.930;2022-12-29T05:20:50;94608.06;;;7.26;100.00
49841;BME280;35738;49.890;5.930;2022-12-29T05:23:17;94621.59;;;7.22;100.00
49841;BME280;35738;49.890;5.930;2022-12-29T05:25:44;94623.66;;;7.25;100.00
49841;BME280;35738;49.890;5.930;2022-12-29T05:28:12;94613.75;;;7.33;100.00
49841;BME280;35738;49.890;5.930;2022-12-29T05:30:39;94621.97;;;7.33;100.00
49841;BME280;35738;49.890;5.930;2022-12-29T05:33:06;94603.16;;;7.31;100.00
49841;BME280;35738;49.890;5.930;2022-12-29T05:35:33;94594.25;;;7.22;100.00
49841;BME280;35738;49.890;5.930;2022-12-29T05:37:59;94618.19;;;7.25;100.00
49841;BME280;35738;49.890;5.930;2022-12-29T05:40:26;94643.03;;;7.20;100.00
49841;BME280;35738;49.890;5.930;2022-12-29T05:42:52;94624.09;;;7.15;100.00
49841;BME280;35738;49.890;5.930;2022-12-29T05:45:19;94672.22;;;7.98;100.00
49841;BME280;35738;49.890;5.930;2022-12-29T05:47:46;94663.38;;;7.44;100.00
49841;BME280;35738;49.890;5.930;2022-12-29T05:50:12;94641.91;;;6.88;100.00
49841;BME280;35738;49.890;5.930;2022-12-29T05:52:39;94682.72;;;6.73;100.00
49841;BME280;35738;49.890;5.930;2022-12-29T05:55:06;94672.69;;;6.56;100.00
49841;BME280;35738;49.890;5.930;2022-12-29T05:57:33;94656.44;;;6.59;100.00
49841;BME280;35738;49.890;5.930;2022-12-29T05:59:59;94672.69;;;6.35;100.00
49841;BME280;35738;49.890;5.930;2022-12-29T06:02:26;94670.81;;;6.27;100.00
49841;BME280;35738;49.890;5.930;2022-12-29T06:04:53;94656.09;;;6.19;100.00
49841;BME280;35738;49.890;5.930;2022-12-29T06:07:19;94673.00;;;6.13;100.00
49841;BME280;35738;49.890;5.930;2022-12-29T06:09:46;94672.53;;;6.11;100.00
49841;BME280;35738;49.890;5.930;2022-12-29T06:12:12;94697.41;;;6.09;100.00
49841;BME280;35738;49.890;5.930;2022-12-29T06:14:39;94690.44;;;6.20;100.00
49841;BME280;35738;49.890;5.930;2022-12-29T06:17:06;94687.16;;;6.06;100.00
49841;BME280;35738;49.890;5.930;2022-12-29T06:19:32;94686.41;;;6.26;100.00
49841;BME280;35738;49.890;5.930;2022-12-29T06:21:59;94706.59;;;6.04;100.00
49841;BME280;35738;49.890;5.930;2022-12-29T06:24:26;94651.72;;;5.97;100.00
49841;BME280;35738;49.890;5.930;2022-12-29T06:26:52;94669.56;;;5.95;100.00
49841;BME280;35738;49.890;5.930;2022-12-29T06:29:19;94697.81;;;5.90;100.00
49841;BME280;35738;49.890;5.930;2022-12-29T06:31:46;94692.03;;;5.92;100.00
49841;BME280;35738;49.890;5.930;2022-12-29T06:34:15;94699.56;;;5.86;100.00
49841;BME280;35738;49.890;5.930;2022-12-29T06:36:42;94678.38;;;5.83;100.00
49841;BME280;35738;49.890;5.930;2022-12-29T06:39:10;94668.59;;;5.82;100.00
49841;BME280;35738;49.890;5.930;2022-12-29T06:41:36;94680.66;;;5.81;100.00
49841;BME280;35738;49.890;5.930;2022-12-29T06:44:04;94691.28;;;5.74;100.00
49841;BME280;35738;49.890;5.930;2022-12-29T06:46:30;94692.41;;;5.73;100.00
49841;BME280;35738;49.890;5.930;2022-12-29T06:48:57;94701.06;;;5.75;100.00
49841;BME280;35738;49.890;5.930;2022-12-29T06:51:24;94680.84;;;5.76;100.00
49841;BME280;35738;49.890;5.930;2022-12-29T06:53:50;94693.00;;;5.96;100.00
49841;BME280;35738;49.890;5.930;2022-12-29T06:56:17;94691.34;;;6.03;100.00
49841;BME280;35738;49.890;5.930;2022-12-29T06:58:44;94708.25;;;5.97;100.00
49841;BME280;35738;49.890;5.930;2022-12-29T07:01:10;94700.19;;;6.00;100.00
49841;BME280;35738;49.890;5.930;2022-12-29T07:03:37;94698.28;;;5.92;100.00
49841;BME280;35738;49.890;5.930;2022-12-29T07:06:04;94689.09;;;6.05;100.00
49841;BME280;35738;49.890;5.930;2022-12-29T07:08:30;94690.03;;;6.10;100.00
49841;BME280;35738;49.890;5.930;2022-12-29T07:10:57;94687.72;;;6.20;100.00
49841;BME280;35738;49.890;5.930;2022-12-29T07:13:24;94697.69;;;6.16;100.00
49841;BME280;35738;49.890;5.930;2022-12-29T07:15:50;94724.66;;;6.18;100.00
49841;BME280;35738;49.890;5.930;2022-12-29T07:18:17;94720.75;;;6.27;100.00
49841;BME280;35738;49.890;5.930;2022-12-29T07:20:44;94733.69;;;6.39;100.00
49841;BME280;35738;49.890;5.930;2022-12-29T07:23:11;94724.69;;;6.38;100.00
49841;BME280;35738;49.890;5.930;2022-12-29T07:25:38;94710.13;;;6.34;100.00
49841;BME280;35738;49.890;5.930;2022-12-29T07:28:06;94743.03;;;6.38;100.00
49841;BME280;35738;49.890;5.930;2022-12-29T07:30:33;94724.22;;;6.36;100.00
49841;BME280;35738;49.890;5.930;2022-12-29T07:33:00;94750.34;;;6.46;100.00
49841;BME280;35738;49.890;5.930;2022-12-29T07:35:26;94755.69;;;6.43;100.00
49841;BME280;35738;49.890;5.930;2022-12-29T07:37:53;94762.56;;;6.49;100.00
49841;BME280;35738;49.890;5.930;2022-12-29T07:40:20;94760.47;;;6.46;100.00
49841;BME280;35738;49.890;5.930;2022-12-29T07:42:46;94756.47;;;6.43;100.00
49841;BME280;35738;49.890;5.930;2022-12-29T07:45:13;94784.72;;;6.47;100.00
49841;BME280;35738;49.890;5.930;2022-12-29T07:47:39;94750.34;;;6.46;100.00
49841;BME280;35738;49.890;5.930;2022-12-29T07:50:06;94790.00;;;6.52;100.00
49841;BME280;35738;49.890;5.930;2022-12-29T07:52:33;94781.19;;;6.47;100.00
49841;BME280;35738;49.890;5.930;2022-12-29T07:54:59;94777.19;;;6.44;100.00
49841;BME280;35738;49.890;5.930;2022-12-29T07:57:26;94796.31;;;6.44;100.00
49841;BME280;35738;49.890;5.930;2022-12-29T07:59:58;94796.13;;;6.49;100.00
49841;BME280;35738;49.890;5.930;2022-12-29T08:02:24;94804.00;;;6.51;100.00
49841;BME280;35738;49.890;5.930;2022-12-29T08:04:53;94798.94;;;6.70;100.00
49841;BME280;35738;49.890;5.930;2022-12-29T08:07:19;94788.88;;;6.53;100.00
49841;BME280;35738;49.890;5.930;2022-12-29T08:09:46;94792.31;;;6.42;100.00
49841;BME280;35738;49.890;5.930;2022-12-29T08:12:12;94790.66;;;6.49;100.00
49841;BME280;35738;49.890;5.930;2022-12-29T08:14:39;94803.19;;;6.50;100.00
49841;BME280;35738;49.890;5.930;2022-12-29T08:17:06;94805.94;;;6.50;100.00
49841;BME280;35738;49.890;5.930;2022-12-29T08:19:32;94808.47;;;6.55;100.00
49841;BME280;35738;49.890;5.930;2022-12-29T08:21:59;94817.13;;;6.57;100.00
49841;BME280;35738;49.890;5.930;2022-12-29T08:24:26;94814.06;;;6.59;100.00
49841;BME280;35738;49.890;5.930;2022-12-29T08:26:52;94818.72;;;6.58;100.00
49841;BME280;35738;49.890;5.930;2022-12-29T08:29:19;94813.06;;;6.63;100.00
49841;BME280;35738;49.890;5.930;2022-12-29T08:31:47;94828.19;;;6.69;100.00
49841;BME280;35738;49.890;5.930;2022-12-29T08:34:14;94814.22;;;6.62;100.00
49841;BME280;35738;49.890;5.930;2022-12-29T08:36:41;94807.53;;;6.51;100.00
49841;BME280;35738;49.890;5.930;2022-12-29T08:39:07;94834.47;;;6.61;100.00
49841;BME280;35738;49.890;5.930;2022-12-29T08:41:34;94833.72;;;6.52;100.00
49841;BME280;35738;49.890;5.930;2022-12-29T08:44:01;94832.56;;;6.53;100.00
49841;BME280;35738;49.890;5.930;2022-12-29T08:46:27;94832.56;;;6.53;100.00
49841;BME280;35738;49.890;5.930;2022-12-29T08:48:54;94838.69;;;6.50;100.00
49841;BME280;35738;49.890;5.930;2022-12-29T08:51:24;94828.84;;;6.58;100.00
49841;BME280;35738;49.890;5.930;2022-12-29T08:53:52;94846.91;;;6.50;100.00
49841;BME280;35738;49.890;5.930;2022-12-29T08:56:19;94848.91;;;6.71;100.00
49841;BME280;35738;49.890;5.930;2022-12-29T08:58:45;94845.53;;;6.65;100.00
49841;BME280;35738;49.890;5.930;2022-12-29T09:01:12;94833.16;;;6.67;100.00
49841;BME280;35738;49.890;5.930;2022-12-29T09:03:39;94856.69;;;6.51;100.00
49841;BME280;35738;49.890;5.930;2022-12-29T09:06:25;94837.56;;;6.51;100.00
49841;BME280;35738;49.890;5.930;2022-12-29T09:08:54;94837.38;;;6.56;100.00
49841;BME280;35738;49.890;5.930;2022-12-29T09:11:23;94835.06;;;6.76;100.00
49841;BME280;35738;49.890;5.930;2022-12-29T09:13:51;94863.06;;;6.64;100.00
49841;BME280;35738;49.890;5.930;2022-12-29T09:16:20;94842.66;;;6.61;100.00
49841;BME280;35738;49.890;5.930;2022-12-29T09:18:47;94843.28;;;6.67;100.00
49841;BME280;35738;49.890;5.930;2022-12-29T09:21:14;94865.59;;;6.78;100.00
49841;BME280;35738;49.890;5.930;2022-12-29T09:23:41;94872.50;;;6.75;100.00
49841;BME280;35738;49.890;5.930;2022-12-29T09:26:08;94869.97;;;6.70;100.00
49841;BME280;35738;49.890;5.930;2022-12-29T09:28:35;94885.09;;;6.59;100.00
49841;BME280;35738;49.890;5.930;2022-12-29T09:31:03;94863.72;;;6.61;100.00
49841;BME280;35738;49.890;5.930;2022-12-29T09:33:29;94871.09;;;6.60;100.00
49841;BME280;35738;49.890;5.930;2022-12-29T09:35:57;94828.94;;;6.41;100.00
49841;BME280;35738;49.890;5.930;2022-12-29T09:38:25;94902.66;;;6.49;100.00
49841;BME280;35738;49.890;5.930;2022-12-29T09:41:06;94899.91;;;6.49;100.00
49841;BME280;35738;49.890;5.930;2022-12-29T09:46:25;94922.09;;;6.48;100.00
49841;BME280;35738;49.890;5.930;2022-12-29T09:49:33;94894.13;;;6.51;100.00
49841;BME280;35738;49.890;5.930;2022-12-29T09:52:14;94903.22;;;6.63;100.00
49841;BME280;35738;49.890;5.930;2022-12-29T09:54:50;94909.25;;;6.48;100.00
49841;BME280;35738;49.890;5.930;2022-12-29T09:57:33;94908.97;;;6.32;100.00
49841;BME280;35738;49.890;5.930;2022-12-29T10:00:22;94905.25;;;6.37;100.00
49841;BME280;35738;49.890;5.930;2022-12-29T10:02:58;94914.13;;;6.34;100.00
49841;BME280;35738;49.890;5.930;2022-12-29T10:05:39;94915.72;;;6.35;100.00
49841;BME280;35738;49.890;5.930;2022-12-29T10:10:51;94905.47;;;6.23;100.00
49841;BME280;35738;49.890;5.930;2022-12-29T10:24:53;94919.41;;;6.30;100.00
49841;BME280;35738;49.890;5.930;2022-12-29T10:27:21;94920.03;;;6.36;100.00
49841;BME280;35738;49.890;5.930;2022-12-29T10:29:51;94930.97;;;6.36;100.00
49841;BME280;35738;49.890;5.930;2022-12-29T10:32:36;94938.69;;;6.34;100.00
49841;BME280;35738;49.890;5.930;2022-12-29T10:35:23;94945.09;;;6.38;100.00
49841;BME280;35738;49.890;5.930;2022-12-29T10:38:15;94940.00;;;6.28;100.00
49841;BME280;35738;49.890;5.930;2022-12-29T10:43:27;94957.47;;;6.35;100.00
49841;BME280;35738;49.890;5.930;2022-12-29T10:45:58;94931.94;;;6.40;100.00
49841;BME280;35738;49.890;5.930;2022-12-29T10:48:29;94945.81;;;6.64;100.00
49841;BME280;35738;49.890;5.930;2022-12-29T10:51:00;94938.66;;;6.89;100.00
49841;BME280;35738;49.890;5.930;2022-12-29T10:56:25;94939.09;;;7.29;100.00
49841;BME280;35738;49.890;5.930;2022-12-29T10:58:55;94911.28;;;7.27;100.00
49841;BME280;35738;49.890;5.930;2022-12-29T11:01:30;94934.81;;;7.20;99.25
49841;BME280;35738;49.890;5.930;2022-12-29T11:04:05;94927.06;;;6.92;100.00
49841;BME280;35738;49.890;5.930;2022-12-29T11:06:38;94924.56;;;6.79;100.00
49841;BME280;35738;49.890;5.930;2022-12-29T11:09:13;94933.72;;;6.83;100.00
49841;BME280;35738;49.890;5.930;2022-12-29T11:11:41;94947.75;;;6.64;100.00
49841;BME280;35738;49.890;5.930;2022-12-29T11:16:40;94930.91;;;6.53;100.00
49841;BME280;35738;49.890;5.930;2022-12-29T11:19:20;94931.50;;;6.67;100.00
49841;BME280;35738;49.890;5.930;2022-12-29T11:21:47;94945.03;;;6.55;100.00
49841;BME280;35738;49.890;5.930;2022-12-29T11:24:25;94959.19;;;6.57;100.00
49841;BME280;35738;49.890;5.930;2022-12-29T11:27:08;94930.13;;;6.53;100.00
49841;BME280;35738;49.890;5.930;2022-12-29T11:29:40;94959.84;;;6.54;100.00
49841;BME280;35738;49.890;5.930;2022-12-29T11:32:27;94951.16;;;6.52;100.00
49841;BME280;35738;49.890;5.930;2022-12-29T11:34:56;94977.19;;;6.50;100.00
49841;BME280;35738;49.890;5.930;2022-12-29T11:37:30;94957.56;;;6.56;100.00
49841;BME280;35738;49.890;5.930;2022-12-29T11:40:06;94961.41;;;6.64;100.00
49841;BME280;35738;49.890;5.930;2022-12-29T11:45:18;94940.34;;;6.64;100.00
49841;BME280;35738;49.890;5.930;2022-12-29T11:47:47;94954.97;;;6.77;100.00
49841;BME280;35738;49.890;5.930;2022-12-29T11:50:30;94948.69;;;6.77;100.00
49841;BME280;35738;49.890;5.930;2022-12-29T11:53:03;94963.53;;;7.05;99.98
49841;BME280;35738;49.890;5.930;2022-12-29T11:55:31;94949.66;;;7.10;98.73
49841;BME280;35738;49.890;5.930;2022-12-29T11:58:01;94955.25;;;6.84;97.91
49841;BME280;35738;49.890;5.930;2022-12-29T12:00:31;94941.59;;;6.84;99.54
49841;BME280;35738;49.890;5.930;2022-12-29T12:03:18;94951.59;;;6.72;100.00
49841;BME280;35738;49.890;5.930;2022-12-29T12:05:58;94949.69;;;6.72;100.00
49841;BME280;35738;49.890;5.930;2022-12-29T12:11:18;94960.28;;;6.74;100.00
49841;BME280;35738;49.890;5.930;2022-12-29T12:16:35;94952.88;;;6.74;100.00
49841;BME280;35738;49.890;5.930;2022-12-29T12:21:41;94959.19;;;6.57;100.00
49841;BME280;35738;49.890;5.930;2022-12-29T12:24:30;94923.44;;;6.33;99.38
49841;BME280;35738;49.890;5.930;2022-12-29T12:27:04;94977.25;;;6.32;98.84
49841;BME280;35738;49.890;5.930;2022-12-29T12:32:46;94972.25;;;6.34;100.00
49841;BME280;35738;49.890;5.930;2022-12-29T12:35:21;94988.31;;;6.36;100.00
49841;BME280;35738;49.890;5.930;2022-12-29T12:43:43;94971.16;;;6.27;100.00
49841;BME280;35738;49.890;5.930;2022-12-29T13:00:03;94993.13;;;6.48;98.79
49841;BME280;35738;49.890;5.930;2022-12-29T13:05:41;94994.94;;;6.26;99.11
49841;BME280;35738;49.890;5.930;2022-12-29T13:10:50;94975.00;;;6.26;96.70
49841;BME280;35738;49.890;5.930;2022-12-29T13:13:38;94982.22;;;6.30;97.96
49841;BME280;35738;49.890;5.930;2022-12-29T13:19:08;94988.94;;;6.42;97.94
49841;BME280;35738;49.890;5.930;2022-12-29T13:24:43;95008.41;;;6.23;100.00
49841;BME280;35738;49.890;5.930;2022-12-29T13:27:36;94985.44;;;6.24;97.92
49841;BME280;35738;49.890;5.930;2022-12-29T13:30:15;94976.16;;;6.16;98.87
49841;BME280;35738;49.890;5.930;2022-12-29T13:36:14;94988.00;;;6.37;95.87
49841;BME280;35738;49.890;5.930;2022-12-29T13:38:48;95006.94;;;6.51;99.48
49841;BME280;35738;49.890;5.930;2022-12-29T13:41:35;94990.06;;;6.49;97.00
49841;BME280;35738;49.890;5.930;2022-12-29T13:44:04;94989.38;;;6.69;97.40
49841;BME280;35738;49.890;5.930;2022-12-29T13:46:37;94975.28;;;6.50;97.24
49841;BME280;35738;49.890;5.930;2022-12-29T13:49:15;94977.88;;;6.38;95.03
49841;BME280;35738;49.890;5.930;2022-12-29T13:52:07;94988.31;;;6.45;94.75
49841;BME280;35738;49.890;5.930;2022-12-29T14:08:00;95013.88;;;6.23;95.69
49841;BME280;35738;49.890;5.930;2022-12-29T14:13:16;95006.97;;;6.17;95.94
49841;BME280;35738;49.890;5.930;2022-12-29T14:15:46;95007.31;;;6.07;97.81
49841;BME280;35738;49.890;5.930;2022-12-29T14:18:19;95021.75;;;6.07;96.50
49841;BME280;35738;49.890;5.930;2022-12-29T14:31:02;95016.28;;;5.90;98.05
49841;BME280;35738;49.890;5.930;2022-12-29T14:33:32;95015.28;;;5.86;97.77
49841;BME280;35738;49.890;5.930;2022-12-29T14:36:18;95020.94;;;5.89;97.56
49841;BME280;35738;49.890;5.930;2022-12-29T14:38:46;95008.91;;;5.99;97.34
49841;BME280;35738;49.890;5.930;2022-12-29T14:41:34;95015.19;;;5.99;97.47
49841;BME280;35738;49.890;5.930;2022-12-29T14:49:20;95020.41;;;5.70;98.06
49841;BME280;35738;49.890;5.930;2022-12-29T14:51:49;95027.78;;;5.61;98.97
49841;BME280;35738;49.890;5.930;2022-12-29T14:54:42;95037.25;;;5.72;97.88
49841;BME280;35738;49.890;5.930;2022-12-29T14:57:17;95025.69;;;5.75;98.21
49841;BME280;35738;49.890;5.930;2022-12-29T14:59:46;95026.66;;;5.79;98.58
49841;BME280;35738;49.890;5.930;2022-12-29T15:02:18;95034.22;;;5.73;98.67
49841;BME280;35738;49.890;5.930;2022-12-29T15:04:46;95030.66;;;5.64;100.00
49841;BME280;35738;49.890;5.930;2022-12-29T15:07:14;95030.19;;;5.62;100.00
49841;BME280;35738;49.890;5.930;2022-12-29T15:09:50;95036.44;;;5.71;100.00
49841;BME280;35738;49.890;5.930;2022-12-29T15:12:33;95031.78;;;5.72;100.00
49841;BME280;35738;49.890;5.930;2022-12-29T15:15:17;95039.03;;;5.77;99.60
49841;BME280;35738;49.890;5.930;2022-12-29T15:17:44;95034.22;;;5.73;100.00
49841;BME280;35738;49.890;5.930;2022-12-29T15:22:52;95032.59;;;5.64;98.54
49841;BME280;35738;49.890;5.930;2022-12-29T15:25:20;95033.22;;;5.61;99.13
49841;BME280;35738;49.890;5.930;2022-12-29T15:27:51;95028.41;;;5.58;98.84
49841;BME280;35738;49.890;5.930;2022-12-29T15:30:20;95024.22;;;5.43;100.00
49841;BME280;35738;49.890;5.930;2022-12-29T15:32:48;95027.72;;;5.35;99.47
49841;BME280;35738;49.890;5.930;2022-12-29T15:35:28;95016.66;;;5.31;100.00
49841;BME280;35738;49.890;5.930;2022-12-29T15:37:56;95026.91;;;5.26;100.00
49841;BME280;35738;49.890;5.930;2022-12-29T15:40:29;95038.13;;;5.24;100.00
49841;BME280;35738;49.890;5.930;2022-12-29T15:45:34;95043.81;;;5.14;100.00
49841;BME280;35738;49.890;5.930;2022-12-29T15:48:03;95036.41;;;5.06;100.00
49841;BME280;35738;49.890;5.930;2022-12-29T15:50:35;95040.34;;;5.22;100.00
49841;BME280;35738;49.890;5.930;2022-12-29T15:53:10;95041.47;;;5.21;100.00